sensor_id;sensor_type;location;lat;lon;timestamp;temperature;humidity
7496;DHT22;3789;47.064;15.482;2023-03-15T00:02:05;8.80;86.00
7496;DHT22;3789;47.064;15.482;2023-03-15T00:04:38;8.80;85.10
7496;DHT22;3789;47.064;15.482;2023-03-15T00:07:06;8.80;82.50
7496;DHT22;3789;47.064;15.482;2023-03-15T00:09:35;8.80;82.60
7496;DHT22;3789;47.064;15.482;2023-03-15T00:12:03;8.70;82.30
7496;DHT22;3789;47.064;15.482;2023-03-15T00:14:32;8.70;83.30
7496;DHT22;3789;47.064;15.482;2023-03-15T00:17:01;8.70;81.80
7496;DHT22;3789;47.064;15.482;2023-03-15T00:19:32;8.70;86.40
7496;DHT22;3789;47.064;15.482;2023-03-15T00:22:02;8.60;82.60
7496;DHT22;3789;47.064;15.482;2023-03-15T00:24:38;8.70;82.80
7496;DHT22;3789;47.064;15.482;2023-03-15T00:27:10;8.70;83.30
7496;DHT22;3789;47.064;15.482;2023-03-15T00:29:39;8.60;81.20
7496;DHT22;3789;47.064;15.482;2023-03-15T00:32:10;8.60;83.50
7496;DHT22;3789;47.064;15.482;2023-03-15T00:34:38;8.70;85.30
7496;DHT22;3789;47.064;15.482;2023-03-15T00:37:05;8.70;84.30
7496;DHT22;3789;47.064;15.482;2023-03-15T00:39:36;8.70;83.70
7496;DHT22;3789;47.064;15.482;2023-03-15T00:42:07;8.60;83.30
7496;DHT22;3789;47.064;15.482;2023-03-15T00:44:35;8.70;83.20
7496;DHT22;3789;47.064;15.482;2023-03-15T00:47:04;8.70;82.30
7496;DHT22;3789;47.064;15.482;2023-03-15T00:49:32;8.60;82.20
7496;DHT22;3789;47.064;15.482;2023-03-15T00:52:01;8.60;83.50
7496;DHT22;3789;47.064;15.482;2023-03-15T00:54:30;8.60;83.10
7496;DHT22;3789;47.064;15.482;2023-03-15T00:57:02;8.70;82.50
7496;DHT22;3789;47.064;15.482;2023-03-15T00:59:32;8.70;82.50
7496;DHT22;3789;47.064;15.482;2023-03-15T01:02:05;8.70;83.70
7496;DHT22;3789;47.064;15.482;2023-03-15T01:04:38;8.60;85.90
7496;DHT22;3789;47.064;15.482;2023-03-15T01:07:06;8.60;83.30
7496;DHT22;3789;47.064;15.482;2023-03-15T01:09:35;8.70;82.50
7496;DHT22;3789;47.064;15.482;2023-03-15T01:12:15;8.70;83.30
7496;DHT22;3789;47.064;15.482;2023-03-15T01:14:54;8.60;82.40
7496;DHT22;3789;47.064;15.482;2023-03-15T01:17:26;8.60;82.70
7496;DHT22;3789;47.064;15.482;2023-03-15T01:19:53;8.60;82.90
7496;DHT22;3789;47.064;15.482;2023-03-15T01:22:24;8.70;83.20
7496;DHT22;3789;47.064;15.482;2023-03-15T01:24:56;8.60;84.70
7496;DHT22;3789;47.064;15.482;2023-03-15T01:27:24;8.60;83.00
7496;DHT22;3789;47.064;15.482;2023-03-15T01:29:55;8.60;85.30
7496;DHT22;3789;47.064;15.482;2023-03-15T01:32:44;8.60;85.60
7496;DHT22;3789;47.064;15.482;2023-03-15T01:35:16;8.60;86.60
7496;DHT22;3789;47.064;15.482;2023-03-15T01:37:44;8.60;85.70
7496;DHT22;3789;47.064;15.482;2023-03-15T01:40:13;8.60;83.60
7496;DHT22;3789;47.064;15.482;2023-03-15T01:43:16;8.60;84.40
7496;DHT22;3789;47.064;15.482;2023-03-15T01:46:16;8.60;86.40
7496;DHT22;3789;47.064;15.482;2023-03-15T01:48:52;8.60;86.10
7496;DHT22;3789;47.064;15.482;2023-03-15T01:52:06;8.60;84.70
7496;DHT22;3789;47.064;15.482;2023-03-15T01:55:20;8.60;85.20
7496;DHT22;3789;47.064;15.482;2023-03-15T01:57:59;8.50;86.40
7496;DHT22;3789;47.064;15.482;2023-03-15T02:00:39;8.60;86.50
7496;DHT22;3789;47.064;15.482;2023-03-15T02:03:15;8.50;86.80
7496;DHT22;3789;47.064;15.482;2023-03-15T02:05:51;8.60;87.70
7496;DHT22;3789;47.064;15.482;2023-03-15T02:08:30;8.50;86.20
7496;DHT22;3789;47.064;15.482;2023-03-15T02:11:04;8.50;87.00
7496;DHT22;3789;47.064;15.482;2023-03-15T02:13:38;8.60;87.40
7496;DHT22;3789;47.064;15.482;2023-03-15T02:16:06;8.60;87.10
7496;DHT22;3789;47.064;15.482;2023-03-15T02:18:37;8.50;88.00
7496;DHT22;3789;47.064;15.482;2023-03-15T02:24:35;8.50;88.20
7496;DHT22;3789;47.064;15.482;2023-03-15T02:27:06;8.50;88.20
7496;DHT22;3789;47.064;15.482;2023-03-15T02:29:43;8.50;88.50
7496;DHT22;3789;47.064;15.482;2023-03-15T02:32:19;8.50;88.40
7496;DHT22;3789;47.064;15.482;2023-03-15T02:34:49;8.40;89.20
7496;DHT22;3789;47.064;15.482;2023-03-15T02:37:18;8.50;88.90
7496;DHT22;3789;47.064;15.482;2023-03-15T02:39:47;8.50;88.50
7496;DHT22;3789;47.064;15.482;2023-03-15T02:42:17;8.50;88.30
7496;DHT22;3789;47.064;15.482;2023-03-15T02:44:56;8.40;89.10
7496;DHT22;3789;47.064;15.482;2023-03-15T02:47:31;8.40;89.20
7496;DHT22;3789;47.064;15.482;2023-03-15T02:50:02;8.40;90.20
7496;DHT22;3789;47.064;15.482;2023-03-15T02:52:29;8.40;90.00
7496;DHT22;3789;47.064;15.482;2023-03-15T02:54:58;8.40;90.60
7496;DHT22;3789;47.064;15.482;2023-03-15T02:57:36;8.40;90.10
7496;DHT22;3789;47.064;15.482;2023-03-15T03:00:10;8.30;90.40
7496;DHT22;3789;47.064;15.482;2023-03-15T03:02:46;8.40;90.10
7496;DHT22;3789;47.064;15.482;2023-03-15T03:05:15;8.40;89.40
7496;DHT22;3789;47.064;15.482;2023-03-15T03:07:46;8.40;90.30
7496;DHT22;3789;47.064;15.482;2023-03-15T03:10:17;8.50;90.10
7496;DHT22;3789;47.064;15.482;2023-03-15T03:12:47;8.40;89.40
7496;DHT22;3789;47.064;15.482;2023-03-15T03:15:25;8.40;89.10
7496;DHT22;3789;47.064;15.482;2023-03-15T03:17:55;8.30;90.10
7496;DHT22;3789;47.064;15.482;2023-03-15T03:20:23;8.40;89.80
7496;DHT22;3789;47.064;15.482;2023-03-15T03:22:52;8.40;90.60
7496;DHT22;3789;47.064;15.482;2023-03-15T03:25:26;8.30;88.70
7496;DHT22;3789;47.064;15.482;2023-03-15T03:27:58;8.40;89.80
7496;DHT22;3789;47.064;15.482;2023-03-15T03:30:27;8.40;90.20
7496;DHT22;3789;47.064;15.482;2023-03-15T03:32:56;8.40;89.90
7496;DHT22;3789;47.064;15.482;2023-03-15T03:35:33;8.30;90.20
7496;DHT22;3789;47.064;15.482;2023-03-15T03:38:10;8.40;89.70
7496;DHT22;3789;47.064;15.482;2023-03-15T03:40:47;8.20;90.00
7496;DHT22;3789;47.064;15.482;2023-03-15T03:43:16;6.80;84.70
7496;DHT22;3789;47.064;15.482;2023-03-15T03:45:45;5.10;87.60
7496;DHT22;3789;47.064;15.482;2023-03-15T03:48:12;4.20;89.20
7496;DHT22;3789;47.064;15.482;2023-03-15T03:50:43;3.00;90.80
7496;DHT22;3789;47.064;15.482;2023-03-15T03:53:12;2.40;92.60
7496;DHT22;3789;47.064;15.482;2023-03-15T03:55:40;2.10;93.30
7496;DHT22;3789;47.064;15.482;2023-03-15T03:58:19;1.80;94.10
7496;DHT22;3789;47.064;15.482;2023-03-15T04:00:54;2.30;98.20
7496;DHT22;3789;47.064;15.482;2023-03-15T04:03:26;3.30;99.90
7496;DHT22;3789;47.064;15.482;2023-03-15T04:05:55;4.00;99.90
7496;DHT22;3789;47.064;15.482;2023-03-15T04:08:33;4.60;99.90
7496;DHT22;3789;47.064;15.482;2023-03-15T04:11:04;5.30;96.70
7496;DHT22;3789;47.064;15.482;2023-03-15T04:13:34;5.90;96.70
7496;DHT22;3789;47.064;15.482;2023-03-15T04:16:02;6.30;95.50
7496;DHT22;3789;47.064;15.482;2023-03-15T04:18:33;6.50;94.20
7496;DHT22;3789;47.064;15.482;2023-03-15T04:21:01;6.80;93.00
7496;DHT22;3789;47.064;15.482;2023-03-15T04:23:31;7.10;92.40
7496;DHT22;3789;47.064;15.482;2023-03-15T04:26:04;7.30;91.40
7496;DHT22;3789;47.064;15.482;2023-03-15T04:28:36;7.50;90.90
7496;DHT22;3789;47.064;15.482;2023-03-15T04:31:12;7.50;91.50
7496;DHT22;3789;47.064;15.482;2023-03-15T04:33:44;7.60;91.40
7496;DHT22;3789;47.064;15.482;2023-03-15T04:36:21;7.60;92.00
7496;DHT22;3789;47.064;15.482;2023-03-15T04:38:57;7.60;91.20
7496;DHT22;3789;47.064;15.482;2023-03-15T04:41:33;7.70;90.90
7496;DHT22;3789;47.064;15.482;2023-03-15T04:44:04;7.60;91.20
7496;DHT22;3789;47.064;15.482;2023-03-15T04:46:33;7.60;92.20
7496;DHT22;3789;47.064;15.482;2023-03-15T04:49:01;7.70;91.50
7496;DHT22;3789;47.064;15.482;2023-03-15T04:51:32;7.70;91.50
7496;DHT22;3789;47.064;15.482;2023-03-15T04:54:02;7.70;91.60
7496;DHT22;3789;47.064;15.482;2023-03-15T04:56:32;7.70;91.30
7496;DHT22;3789;47.064;15.482;2023-03-15T04:59:02;7.70;91.00
7496;DHT22;3789;47.064;15.482;2023-03-15T05:01:32;7.70;91.90
7496;DHT22;3789;47.064;15.482;2023-03-15T05:04:01;7.70;92.30
7496;DHT22;3789;47.064;15.482;2023-03-15T05:06:29;7.70;93.50
7496;DHT22;3789;47.064;15.482;2023-03-15T05:09:01;7.70;93.00
7496;DHT22;3789;47.064;15.482;2023-03-15T05:11:31;7.70;92.70
7496;DHT22;3789;47.064;15.482;2023-03-15T05:13:58;7.70;93.20
7496;DHT22;3789;47.064;15.482;2023-03-15T05:16:27;7.70;93.00
7496;DHT22;3789;47.064;15.482;2023-03-15T05:18:55;7.70;95.00
7496;DHT22;3789;47.064;15.482;2023-03-15T05:21:24;7.70;95.40
7496;DHT22;3789;47.064;15.482;2023-03-15T05:23:53;7.70;94.30
7496;DHT22;3789;47.064;15.482;2023-03-15T05:26:22;7.70;95.00
7496;DHT22;3789;47.064;15.482;2023-03-15T05:28:51;7.70;94.90
7496;DHT22;3789;47.064;15.482;2023-03-15T05:31:29;7.30;90.40
7496;DHT22;3789;47.064;15.482;2023-03-15T05:34:04;4.80;82.10
7496;DHT22;3789;47.064;15.482;2023-03-15T05:39:05;1.30;89.90
7496;DHT22;3789;47.064;15.482;2023-03-15T05:41:33;0.80;92.10
7496;DHT22;3789;47.064;15.482;2023-03-15T05:44:03;0.50;93.90
7496;DHT22;3789;47.064;15.482;2023-03-15T05:46:34;1.00;94.00
7496;DHT22;3789;47.064;15.482;2023-03-15T05:49:03;1.10;92.60
7496;DHT22;3789;47.064;15.482;2023-03-15T05:51:35;0.40;92.60
7496;DHT22;3789;47.064;15.482;2023-03-15T05:54:05;-0.40;93.00
7496;DHT22;3789;47.064;15.482;2023-03-15T05:56:42;-0.70;94.10
7496;DHT22;3789;47.064;15.482;2023-03-15T05:59:16;-0.80;96.60
7496;DHT22;3789;47.064;15.482;2023-03-15T06:01:47;0.00;96.90
7496;DHT22;3789;47.064;15.482;2023-03-15T06:04:24;0.20;97.00
7496;DHT22;3789;47.064;15.482;2023-03-15T06:06:53;0.60;97.10
7496;DHT22;3789;47.064;15.482;2023-03-15T06:09:28;0.50;94.00
7496;DHT22;3789;47.064;15.482;2023-03-15T06:11:58;0.20;97.60
7496;DHT22;3789;47.064;15.482;2023-03-15T06:14:32;0.00;94.60
7496;DHT22;3789;47.064;15.482;2023-03-15T06:17:01;-0.30;96.60
7496;DHT22;3789;47.064;15.482;2023-03-15T06:19:31;0.20;99.80
7496;DHT22;3789;47.064;15.482;2023-03-15T06:22:01;1.20;99.10
7496;DHT22;3789;47.064;15.482;2023-03-15T06:24:32;2.00;98.30
7496;DHT22;3789;47.064;15.482;2023-03-15T06:27:02;2.30;96.10
7496;DHT22;3789;47.064;15.482;2023-03-15T06:29:30;2.70;98.90
7496;DHT22;3789;47.064;15.482;2023-03-15T06:32:01;3.90;99.40
7496;DHT22;3789;47.064;15.482;2023-03-15T06:34:29;4.90;98.20
7496;DHT22;3789;47.064;15.482;2023-03-15T06:37:02;5.50;97.60
7496;DHT22;3789;47.064;15.482;2023-03-15T06:39:34;5.90;98.20
7496;DHT22;3789;47.064;15.482;2023-03-15T06:42:01;6.10;97.20
7496;DHT22;3789;47.064;15.482;2023-03-15T06:44:31;6.40;96.40
7496;DHT22;3789;47.064;15.482;2023-03-15T06:46:59;6.50;97.90
7496;DHT22;3789;47.064;15.482;2023-03-15T06:49:35;6.70;95.80
7496;DHT22;3789;47.064;15.482;2023-03-15T06:52:06;7.00;96.00
7496;DHT22;3789;47.064;15.482;2023-03-15T06:54:36;7.10;95.80
7496;DHT22;3789;47.064;15.482;2023-03-15T06:57:05;7.20;96.50
7496;DHT22;3789;47.064;15.482;2023-03-15T06:59:35;7.30;95.00
7496;DHT22;3789;47.064;15.482;2023-03-15T07:02:03;7.40;94.90
7496;DHT22;3789;47.064;15.482;2023-03-15T07:04:31;7.40;95.60
7496;DHT22;3789;47.064;15.482;2023-03-15T07:07:03;7.40;94.70
7496;DHT22;3789;47.064;15.482;2023-03-15T07:09:32;7.50;95.10
7496;DHT22;3789;47.064;15.482;2023-03-15T07:12:01;7.50;95.00
7496;DHT22;3789;47.064;15.482;2023-03-15T07:14:31;7.70;95.90
7496;DHT22;3789;47.064;15.482;2023-03-15T07:17:01;7.80;95.40
7496;DHT22;3789;47.064;15.482;2023-03-15T07:19:29;8.00;94.80
7496;DHT22;3789;47.064;15.482;2023-03-15T07:21:58;8.10;95.10
7496;DHT22;3789;47.064;15.482;2023-03-15T07:24:25;8.10;94.40
7496;DHT22;3789;47.064;15.482;2023-03-15T07:26:56;8.10;94.50
7496;DHT22;3789;47.064;15.482;2023-03-15T07:29:25;8.10;96.40
7496;DHT22;3789;47.064;15.482;2023-03-15T07:31:56;8.30;95.20
7496;DHT22;3789;47.064;15.482;2023-03-15T07:34:26;8.50;95.10
7496;DHT22;3789;47.064;15.482;2023-03-15T07:36:55;8.50;95.90
7496;DHT22;3789;47.064;15.482;2023-03-15T07:39:23;8.50;94.10
7496;DHT22;3789;47.064;15.482;2023-03-15T07:41:53;8.30;94.00
7496;DHT22;3789;47.064;15.482;2023-03-15T07:44:23;8.20;94.30
7496;DHT22;3789;47.064;15.482;2023-03-15T07:46:56;8.20;95.00
7496;DHT22;3789;47.064;15.482;2023-03-15T07:49:26;8.10;93.90
7496;DHT22;3789;47.064;15.482;2023-03-15T07:51:56;8.10;94.30
7496;DHT22;3789;47.064;15.482;2023-03-15T07:54:26;8.00;94.10
7496;DHT22;3789;47.064;15.482;2023-03-15T07:56:58;8.10;94.90
7496;DHT22;3789;47.064;15.482;2023-03-15T07:59:26;8.10;94.50
7496;DHT22;3789;47.064;15.482;2023-03-15T08:01:55;8.20;95.20
7496;DHT22;3789;47.064;15.482;2023-03-15T08:04:22;8.20;94.70
7496;DHT22;3789;47.064;15.482;2023-03-15T08:06:51;8.30;94.80
7496;DHT22;3789;47.064;15.482;2023-03-15T08:09:23;8.50;94.40
7496;DHT22;3789;47.064;15.482;2023-03-15T08:11:52;8.60;94.80
7496;DHT22;3789;47.064;15.482;2023-03-15T08:14:22;8.50;93.80
7496;DHT22;3789;47.064;15.482;2023-03-15T08:16:55;8.50;94.20
7496;DHT22;3789;47.064;15.482;2023-03-15T08:19:25;8.30;93.40
7496;DHT22;3789;47.064;15.482;2023-03-15T08:21:57;8.30;93.60
7496;DHT22;3789;47.064;15.482;2023-03-15T08:24:34;8.50;93.90
7496;DHT22;3789;47.064;15.482;2023-03-15T08:27:04;8.80;93.80
7496;DHT22;3789;47.064;15.482;2023-03-15T08:29:36;8.70;93.90
7496;DHT22;3789;47.064;15.482;2023-03-15T08:32:06;8.80;94.00
7496;DHT22;3789;47.064;15.482;2023-03-15T08:34:36;8.90;94.20
7496;DHT22;3789;47.064;15.482;2023-03-15T08:37:06;9.20;94.20
7496;DHT22;3789;47.064;15.482;2023-03-15T08:39:37;9.30;93.40
7496;DHT22;3789;47.064;15.482;2023-03-15T08:42:06;9.10;93.10
7496;DHT22;3789;47.064;15.482;2023-03-15T08:44:34;9.20;93.80
7496;DHT22;3789;47.064;15.482;2023-03-15T08:47:23;9.50;93.80
7496;DHT22;3789;47.064;15.482;2023-03-15T08:49:54;9.70;94.40
7496;DHT22;3789;47.064;15.482;2023-03-15T08:52:23;10.10;92.90
7496;DHT22;3789;47.064;15.482;2023-03-15T08:54:51;10.10;91.60
7496;DHT22;3789;47.064;15.482;2023-03-15T08:57:21;9.80;92.30
7496;DHT22;3789;47.064;15.482;2023-03-15T08:59:54;9.50;93.00
7496;DHT22;3789;47.064;15.482;2023-03-15T09:02:24;9.60;93.30
7496;DHT22;3789;47.064;15.482;2023-03-15T09:04:54;9.70;93.80
7496;DHT22;3789;47.064;15.482;2023-03-15T09:07:23;10.00;93.20
7496;DHT22;3789;47.064;15.482;2023-03-15T09:09:52;9.90;92.20
7496;DHT22;3789;47.064;15.482;2023-03-15T09:12:21;7.80;86.90
7496;DHT22;3789;47.064;15.482;2023-03-15T09:14:51;6.00;92.80
7496;DHT22;3789;47.064;15.482;2023-03-15T09:17:28;5.50;92.60
7496;DHT22;3789;47.064;15.482;2023-03-15T09:19:58;4.90;94.70
7496;DHT22;3789;47.064;15.482;2023-03-15T09:22:26;4.60;93.70
7496;DHT22;3789;47.064;15.482;2023-03-15T09:25:08;4.00;94.90
7496;DHT22;3789;47.064;15.482;2023-03-15T09:27:37;3.90;97.80
7496;DHT22;3789;47.064;15.482;2023-03-15T09:30:07;4.70;98.20
7496;DHT22;3789;47.064;15.482;2023-03-15T09:32:37;5.80;98.20
7496;DHT22;3789;47.064;15.482;2023-03-15T09:35:07;6.90;97.00
7496;DHT22;3789;47.064;15.482;2023-03-15T09:37:37;7.80;95.70
7496;DHT22;3789;47.064;15.482;2023-03-15T09:40:06;8.50;96.00
7496;DHT22;3789;47.064;15.482;2023-03-15T09:51:10;9.70;93.40
7496;DHT22;3789;47.064;15.482;2023-03-15T09:53:55;9.90;93.90
7496;DHT22;3789;47.064;15.482;2023-03-15T09:56:53;10.00;92.30
7496;DHT22;3789;47.064;15.482;2023-03-15T09:59:44;10.20;92.30
7496;DHT22;3789;47.064;15.482;2023-03-15T10:02:34;10.40;90.70
7496;DHT22;3789;47.064;15.482;2023-03-15T10:05:26;10.10;91.40
7496;DHT22;3789;47.064;15.482;2023-03-15T10:08:12;9.40;92.00
7496;DHT22;3789;47.064;15.482;2023-03-15T10:17:29;8.10;96.40
7496;DHT22;3789;47.064;15.482;2023-03-15T10:20:16;6.80;99.90
7496;DHT22;3789;47.064;15.482;2023-03-15T10:23:11;5.50;99.90
7496;DHT22;3789;47.064;15.482;2023-03-15T10:25:51;4.80;99.90
7496;DHT22;3789;47.064;15.482;2023-03-15T10:28:57;4.70;99.90
7496;DHT22;3789;47.064;15.482;2023-03-15T10:31:49;4.70;99.90
7496;DHT22;3789;47.064;15.482;2023-03-15T10:34:51;4.90;99.90
7496;DHT22;3789;47.064;15.482;2023-03-15T10:38:18;5.10;99.90
7496;DHT22;3789;47.064;15.482;2023-03-15T10:41:04;5.40;99.90
7496;DHT22;3789;47.064;15.482;2023-03-15T10:44:02;5.40;99.90
7496;DHT22;3789;47.064;15.482;2023-03-15T10:47:18;5.70;99.90
7496;DHT22;3789;47.064;15.482;2023-03-15T10:50:18;6.20;99.90
7496;DHT22;3789;47.064;15.482;2023-03-15T10:53:18;6.50;99.90
7496;DHT22;3789;47.064;15.482;2023-03-15T10:56:05;6.70;99.90
7496;DHT22;3789;47.064;15.482;2023-03-15T10:58:51;7.00;99.90
7496;DHT22;3789;47.064;15.482;2023-03-15T11:01:39;7.30;99.90
7496;DHT22;3789;47.064;15.482;2023-03-15T11:04:22;7.30;99.90
7496;DHT22;3789;47.064;15.482;2023-03-15T11:09:38;7.10;99.90
7496;DHT22;3789;47.064;15.482;2023-03-15T11:12:14;7.10;97.60
7496;DHT22;3789;47.064;15.482;2023-03-15T11:15:01;7.40;98.00
7496;DHT22;3789;47.064;15.482;2023-03-15T11:17:35;7.60;97.10
7496;DHT22;3789;47.064;15.482;2023-03-15T11:20:27;7.90;98.40
7496;DHT22;3789;47.064;15.482;2023-03-15T11:23:15;8.50;97.70
7496;DHT22;3789;47.064;15.482;2023-03-15T11:26:01;8.80;94.90
7496;DHT22;3789;47.064;15.482;2023-03-15T11:28:31;9.00;97.10
7496;DHT22;3789;47.064;15.482;2023-03-15T11:31:10;8.90;90.70
7496;DHT22;3789;47.064;15.482;2023-03-15T11:34:06;8.60;93.10
7496;DHT22;3789;47.064;15.482;2023-03-15T11:36:50;8.60;94.40
7496;DHT22;3789;47.064;15.482;2023-03-15T11:39:58;9.00;89.90
7496;DHT22;3789;47.064;15.482;2023-03-15T11:45:57;9.70;90.80
7496;DHT22;3789;47.064;15.482;2023-03-15T11:49:01;10.00;89.40
7496;DHT22;3789;47.064;15.482;2023-03-15T11:51:35;9.90;87.50
7496;DHT22;3789;47.064;15.482;2023-03-15T11:54:15;9.80;82.90
7496;DHT22;3789;47.064;15.482;2023-03-15T11:57:03;9.80;82.10
7496;DHT22;3789;47.064;15.482;2023-03-15T11:59:38;9.50;79.00
7496;DHT22;3789;47.064;15.482;2023-03-15T12:12:47;10.00;80.50
7496;DHT22;3789;47.064;15.482;2023-03-15T12:15:41;10.10;79.20
7496;DHT22;3789;47.064;15.482;2023-03-15T12:18:18;10.20;81.20
7496;DHT22;3789;47.064;15.482;2023-03-15T12:21:18;10.50;78.70
7496;DHT22;3789;47.064;15.482;2023-03-15T12:23:59;10.50;78.40
7496;DHT22;3789;47.064;15.482;2023-03-15T12:26:44;10.50;76.60
7496;DHT22;3789;47.064;15.482;2023-03-15T12:29:21;10.30;74.80
7496;DHT22;3789;47.064;15.482;2023-03-15T12:37:44;10.50;77.10
7496;DHT22;3789;47.064;15.482;2023-03-15T12:40:37;10.40;72.50
7496;DHT22;3789;47.064;15.482;2023-03-15T12:43:11;10.10;72.20
7496;DHT22;3789;47.064;15.482;2023-03-15T12:45:47;9.70;72.30
7496;DHT22;3789;47.064;15.482;2023-03-15T12:48:21;9.40;73.40
7496;DHT22;3789;47.064;15.482;2023-03-15T12:51:00;9.10;73.00
7496;DHT22;3789;47.064;15.482;2023-03-15T12:53:42;9.20;75.90
7496;DHT22;3789;47.064;15.482;2023-03-15T12:56:41;9.40;75.30
7496;DHT22;3789;47.064;15.482;2023-03-15T13:02:31;9.60;73.90
7496;DHT22;3789;47.064;15.482;2023-03-15T13:10:55;9.70;71.00
7496;DHT22;3789;47.064;15.482;2023-03-15T13:13:50;9.70;69.50
7496;DHT22;3789;47.064;15.482;2023-03-15T13:16:53;9.60;69.60
7496;DHT22;3789;47.064;15.482;2023-03-15T13:19:29;9.50;70.20
7496;DHT22;3789;47.064;15.482;2023-03-15T13:22:21;9.60;70.80
7496;DHT22;3789;47.064;15.482;2023-03-15T13:29:15;9.60;66.40
7496;DHT22;3789;47.064;15.482;2023-03-15T13:32:11;9.60;70.70
7496;DHT22;3789;47.064;15.482;2023-03-15T13:34:45;9.70;70.40
7496;DHT22;3789;47.064;15.482;2023-03-15T13:37:24;9.80;70.80
7496;DHT22;3789;47.064;15.482;2023-03-15T13:40:09;9.70;69.30
7496;DHT22;3789;47.064;15.482;2023-03-15T13:42:44;9.70;68.30
7496;DHT22;3789;47.064;15.482;2023-03-15T13:45:27;9.70;68.30
7496;DHT22;3789;47.064;15.482;2023-03-15T13:47:54;9.60;69.20
7496;DHT22;3789;47.064;15.482;2023-03-15T13:50:25;9.70;68.70
7496;DHT22;3789;47.064;15.482;2023-03-15T13:53:05;9.60;68.40
7496;DHT22;3789;47.064;15.482;2023-03-15T13:55:36;9.60;68.90
7496;DHT22;3789;47.064;15.482;2023-03-15T13:58:06;9.60;68.40
7496;DHT22;3789;47.064;15.482;2023-03-15T14:00:37;9.60;70.20
7496;DHT22;3789;47.064;15.482;2023-03-15T14:03:19;9.40;67.30
7496;DHT22;3789;47.064;15.482;2023-03-15T14:05:54;8.90;63.40
7496;DHT22;3789;47.064;15.482;2023-03-15T14:08:34;8.60;65.30
7496;DHT22;3789;47.064;15.482;2023-03-15T14:11:16;8.50;66.70
7496;DHT22;3789;47.064;15.482;2023-03-15T14:13:52;8.60;68.70
7496;DHT22;3789;47.064;15.482;2023-03-15T14:16:45;8.70;69.60
7496;DHT22;3789;47.064;15.482;2023-03-15T14:19:34;8.80;68.90
7496;DHT22;3789;47.064;15.482;2023-03-15T14:22:16;8.80;69.20
7496;DHT22;3789;47.064;15.482;2023-03-15T14:24:49;9.00;70.70
7496;DHT22;3789;47.064;15.482;2023-03-15T14:27:25;9.00;70.90
7496;DHT22;3789;47.064;15.482;2023-03-15T14:29:56;9.20;70.00
7496;DHT22;3789;47.064;15.482;2023-03-15T14:32:53;9.20;69.00
7496;DHT22;3789;47.064;15.482;2023-03-15T14:35:41;9.20;70.40
7496;DHT22;3789;47.064;15.482;2023-03-15T14:38:25;9.30;70.80
7496;DHT22;3789;47.064;15.482;2023-03-15T14:41:28;9.30;68.50
7496;DHT22;3789;47.064;15.482;2023-03-15T14:44:03;9.30;69.20
7496;DHT22;3789;47.064;15.482;2023-03-15T14:46:33;9.20;69.90
7496;DHT22;3789;47.064;15.482;2023-03-15T14:49:00;9.10;70.20
7496;DHT22;3789;47.064;15.482;2023-03-15T14:51:30;9.00;69.00
7496;DHT22;3789;47.064;15.482;2023-03-15T14:54:21;8.80;68.50
7496;DHT22;3789;47.064;15.482;2023-03-15T14:56:51;8.70;69.40
7496;DHT22;3789;47.064;15.482;2023-03-15T14:59:22;8.50;69.30
7496;DHT22;3789;47.064;15.482;2023-03-15T15:01:55;8.50;69.80
7496;DHT22;3789;47.064;15.482;2023-03-15T15:04:31;8.40;68.90
7496;DHT22;3789;47.064;15.482;2023-03-15T15:07:03;8.30;70.60
7496;DHT22;3789;47.064;15.482;2023-03-15T15:09:33;8.30;70.90
7496;DHT22;3789;47.064;15.482;2023-03-15T15:12:10;8.20;71.70
7496;DHT22;3789;47.064;15.482;2023-03-15T15:14:41;8.00;68.30
7496;DHT22;3789;47.064;15.482;2023-03-15T15:17:15;7.80;70.10
7496;DHT22;3789;47.064;15.482;2023-03-15T15:19:45;7.70;70.20
7496;DHT22;3789;47.064;15.482;2023-03-15T15:22:15;7.70;71.40
7496;DHT22;3789;47.064;15.482;2023-03-15T15:24:49;7.80;71.80
7496;DHT22;3789;47.064;15.482;2023-03-15T15:27:22;8.00;72.10
7496;DHT22;3789;47.064;15.482;2023-03-15T15:29:54;8.10;71.10
7496;DHT22;3789;47.064;15.482;2023-03-15T15:32:21;8.10;69.10
7496;DHT22;3789;47.064;15.482;2023-03-15T15:34:50;8.00;69.50
7496;DHT22;3789;47.064;15.482;2023-03-15T15:37:21;7.90;70.40
7496;DHT22;3789;47.064;15.482;2023-03-15T15:39:50;7.80;69.30
7496;DHT22;3789;47.064;15.482;2023-03-15T15:42:28;7.60;67.10
7496;DHT22;3789;47.064;15.482;2023-03-15T15:44:58;7.50;68.30
7496;DHT22;3789;47.064;15.482;2023-03-15T15:47:31;7.50;69.70
7496;DHT22;3789;47.064;15.482;2023-03-15T15:49:58;7.50;68.90
7496;DHT22;3789;47.064;15.482;2023-03-15T15:52:27;7.40;69.00
7496;DHT22;3789;47.064;15.482;2023-03-15T15:54:56;7.30;68.20
7496;DHT22;3789;47.064;15.482;2023-03-15T15:57:28;7.10;66.10
7496;DHT22;3789;47.064;15.482;2023-03-15T15:59:58;6.70;66.80
7496;DHT22;3789;47.064;15.482;2023-03-15T16:02:26;6.50;68.00
7496;DHT22;3789;47.064;15.482;2023-03-15T16:04:55;6.50;67.90
7496;DHT22;3789;47.064;15.482;2023-03-15T16:07:23;6.50;66.00
7496;DHT22;3789;47.064;15.482;2023-03-15T16:09:59;6.40;68.00
7496;DHT22;3789;47.064;15.482;2023-03-15T16:12:29;6.30;67.50
7496;DHT22;3789;47.064;15.482;2023-03-15T16:15:11;6.40;68.70
7496;DHT22;3789;47.064;15.482;2023-03-15T16:17:41;6.50;68.50
7496;DHT22;3789;47.064;15.482;2023-03-15T16:20:12;6.50;68.80
7496;DHT22;3789;47.064;15.482;2023-03-15T16:22:44;6.50;68.60
7496;DHT22;3789;47.064;15.482;2023-03-15T16:25:21;6.20;66.80
7496;DHT22;3789;47.064;15.482;2023-03-15T16:28:03;6.00;67.60
7496;DHT22;3789;47.064;15.482;2023-03-15T16:30:35;6.00;67.90
7496;DHT22;3789;47.064;15.482;2023-03-15T16:33:19;5.90;67.60
7496;DHT22;3789;47.064;15.482;2023-03-15T16:35:48;5.80;68.00
7496;DHT22;3789;47.064;15.482;2023-03-15T16:38:18;5.70;69.10
7496;DHT22;3789;47.064;15.482;2023-03-15T16:41:14;5.60;68.40
7496;DHT22;3789;47.064;15.482;2023-03-15T16:43:46;5.60;69.70
7496;DHT22;3789;47.064;15.482;2023-03-15T16:46:17;5.60;69.50
7496;DHT22;3789;47.064;15.482;2023-03-15T16:48:48;5.60;69.80
7496;DHT22;3789;47.064;15.482;2023-03-15T16:51:16;5.50;68.70
7496;DHT22;3789;47.064;15.482;2023-03-15T16:53:46;5.40;70.80
7496;DHT22;3789;47.064;15.482;2023-03-15T16:56:15;5.40;71.30
7496;DHT22;3789;47.064;15.482;2023-03-15T16:58:44;5.30;71.10
7496;DHT22;3789;47.064;15.482;2023-03-15T17:01:26;5.20;70.40
7496;DHT22;3789;47.064;15.482;2023-03-15T17:03:55;5.20;71.10
7496;DHT22;3789;47.064;15.482;2023-03-15T17:06:24;5.10;72.20
7496;DHT22;3789;47.064;15.482;2023-03-15T17:09:01;5.10;72.70
7496;DHT22;3789;47.064;15.482;2023-03-15T17:11:31;5.00;71.90
7496;DHT22;3789;47.064;15.482;2023-03-15T17:14:01;5.00;72.70
7496;DHT22;3789;47.064;15.482;2023-03-15T17:16:31;5.00;73.30
7496;DHT22;3789;47.064;15.482;2023-03-15T17:19:16;4.90;76.30
7496;DHT22;3789;47.064;15.482;2023-03-15T17:21:47;3.80;71.90
7496;DHT22;3789;47.064;15.482;2023-03-15T17:24:17;2.20;72.90
7496;DHT22;3789;47.064;15.482;2023-03-15T17:29:15;-0.30;78.80
7496;DHT22;3789;47.064;15.482;2023-03-15T17:31:43;-0.80;82.60
7496;DHT22;3789;47.064;15.482;2023-03-15T17:34:16;-0.90;84.10
7496;DHT22;3789;47.064;15.482;2023-03-15T17:36:50;-1.10;85.60
7496;DHT22;3789;47.064;15.482;2023-03-15T17:39:19;-1.10;86.90
7496;DHT22;3789;47.064;15.482;2023-03-15T17:41:48;-0.20;87.90
7496;DHT22;3789;47.064;15.482;2023-03-15T17:44:21;0.80;90.90
7496;DHT22;3789;47.064;15.482;2023-03-15T17:46:54;1.50;90.20
7496;DHT22;3789;47.064;15.482;2023-03-15T17:49:23;2.20;85.40